الصفحة الرئيسية
صور السواتل توقعات الطقس لمدة 10 يوممناخالطقس البحري أعاصير برق مطارأسئلة وأجوبة الرسائل الإخبارية نبذة
طقس : أوروبا أفريقيا أمريكا الشمالية أمريكا الجنوبية آسيا أستراليا-أوقيانوسيا أخرى
لغات جهة اتصال

سكاكا, السعودية

مطار الجوف المحلي

دائرة عرض: 29-47N, خط طول: 040-06E, ارتفاع: 689 متر


METAR: OESK 280400Z 00000KT CAVOK 30/00 Q1012 NOSIG
TAF: OESK 272230Z 2800/2906 04007G14KT 8000 NSC BECMG 2810/2812 20014KT

زمن: 08:03 (05:03 UTC)

مراقبة الطقس الحالي

تاريخ ووقت الإصدار 1ساعة و 3 دقيقة قبل الساعة 04:00UTC
رياح هادئة
درجة الحرارة 30°درجة مئوية
الرطوبة 14%
ضغط 1012 hPa
الرؤية 10 كم أو أكثر
الغيوم لا تقل 1500 م ولا وجود لمزنة ركامية السحاب الأسود

تغيير وحدة

توقعات

تاريخ ووقت الإصدار 6ساعات و 33 دقيقة قبل الساعة 22:30UTC
التوقعات صالحة من28 الساعة 00 UTC إلى 29 الساعة 06 UTC
ريح 7 عقدة من الشمال الشرقي تتزايد حتى 14 عقدة
الرؤية: 8000 متر
أصبح
من 28 الساعة 10 UTC إلى 28 الساعة 12 UTC
ريح 14 عقدة من الجنوب/الجنوب الغربي
المعلومات الواردة في هذا الموقع يخضع لـإخلاء مسؤولية
طقس : أوروبا أفريقيا أمريكا الشمالية أمريكا الجنوبية آسيا أستراليا-أوقيانوسيا أخرى
صور السواتل توقعات الطقس لمدة 10 يوممناخالطقس البحري أعاصير برق مطارأسئلة وأجوبة لغات جهة اتصال الرسائل الإخبارية نبذة